Latest Weather Observations for Thredbo Top Station

IDN60901

Issued at 5:31 pm EDT Tuesday 26 March 2019 (issued every 10 minutes, with the page automatically refreshed every 10 minutes)

About weather observations | Map of Canberra area stations | Latest observations for Canberra area | Other Formats
Station Details ID: 071032 Name: THREDBO AWS Lat: -36.49 Lon: 148.29 Height: 1957.0 m
Data from the previous 72 hours. | See also: Recent months at Thredbo Top Station
Date/Time
EDT
Temp
°C
App
Temp
°C
Dew
Point
°C
Rel
Hum
%
Delta-T
°C
Wind Press
QNH
hPa
Press
MSL
hPa
Rain since
9am
mm
Dir  Spd
km/h
Gust
km/h
Spd
kts
Gust
kts
26/05:30pm 5.0 -0.5 1.7 79 1.5 W 20 33 11 18 1021.1 1014.4 0.0
26/05:00pm 5.3 -0.2 0.9 73 2.0 WSW 19 28 10 15 1020.6 1013.9 0.0
26/04:30pm 5.6 0.4 0.2 68 2.4 W 17 26 9 14 1020.4 1013.6 0.0
26/04:00pm 6.0 1.7 1.2 71 2.2 W 13 28 7 15 1020.1 1013.4 0.0
26/03:30pm 5.0 -0.5 1.8 80 1.5 WNW 20 37 11 20 1019.6 1012.9 0.0
26/03:00pm 5.3 -1.8 1.6 77 1.7 W 28 44 15 24 1019.1 1012.4 0.0
26/02:30pm 5.2 -2.9 -0.4 67 2.4 W 32 46 17 25 1018.9 1012.1 0.0
26/02:00pm 4.6 -4.8 -0.2 71 2.1 W 39 59 21 32 1018.7 1011.9 0.0
26/01:56pm 4.6 -5.3 -1.2 66 2.4 W 41 59 22 32 1018.5 1011.8 0.0
26/01:30pm 4.8 -4.7 -1.0 66 2.5 W 39 54 21 29 1018.5 1011.8 0.0
26/01:18pm 4.4 -5.2 -1.6 65 2.5 WNW 39 59 21 32 1018.4 1011.6 0.0
26/01:00pm 4.0 -4.5 0.7 79 1.4 W 35 46 19 25 1018.4 1011.6 0.0
26/12:30pm 3.8 -5.4 -1.0 71 2.0 W 37 54 20 29 1017.9 1011.1 0.0
26/12:29pm 4.1 -4.9 0.1 75 1.7 W 37 54 20 29 1018.0 1011.3 0.0
26/12:00pm 2.0 -8.9 -1.2 79 1.3 NW 46 57 25 31 1017.3 1010.5 0.0
26/11:50am 2.2 -7.3 -0.5 82 1.1 WNW 39 59 21 32 1017.4 1010.6 0.0
26/11:30am 2.0 -7.9 -1.1 80 1.3 WNW 41 57 22 31 1017.3 1010.5 0.0
26/11:20am 1.6 -8.9 -1.1 82 1.1 WNW 44 63 24 34 1017.0 1010.1 0.0
26/11:00am 1.0 -10.4 -1.9 81 1.2 WNW 48 63 26 34 1017.0 1010.1 0.0
26/10:30am 0.7 -12.2 -4.9 66 2.1 NW 54 72 29 39 1016.1 1009.2 0.0
26/10:00am 0.8 -10.7 -6.1 60 2.5 NW 46 65 25 35 1016.1 1009.2 0.0
26/09:48am 1.3 -11.4 -7.0 54 3.0 NW 52 70 28 38 1016.1 1009.2 0.0
26/09:30am 0.3 -11.9 -6.1 62 2.3 NW 50 65 27 35 1014.7 1007.7 0.0
26/09:00am -1.1 -12.1 -1.9 94 0.3 WNW 46 67 25 36 1016.4 1009.5 17.4
26/08:47am -1.7 -13.1 -2.5 94 0.2 WNW 48 69 26 37 1015.4 1008.5 17.4
26/08:46am -1.4 -12.5 -2.5 92 0.3 NW 46 69 25 37 1015.3 1008.4 17.4
26/08:36am -1.4 -14.4 -3.0 89 0.5 NW 56 74 30 40 1014.5 1007.6 17.4
26/08:30am -1.5 -14.6 -3.8 84 0.8 NW 56 72 30 39 - - 17.4
26/08:00am -1.7 -13.3 -3.4 88 0.5 NW 48 67 26 36 - - 17.4
26/07:30am -2.1 -13.7 -3.7 89 0.5 NW 48 70 26 38 - - 17.4
26/07:02am -1.6 -13.7 -4.8 79 1.1 NW 50 69 27 37 - - 17.4
26/07:00am -1.7 -13.4 -4.9 79 1.1 NW 48 63 26 34 - - 17.4
26/06:46am -1.4 -14.7 -5.1 76 1.3 NW 56 74 30 40 - - 17.4
26/06:30am -2.0 -15.3 -4.0 86 0.6 NW 57 72 31 39 - - 17.4
26/06:03am -1.4 -15.9 -4.4 80 1.0 NW 63 82 34 44 - - 17.4
26/06:00am -1.7 -16.6 -4.2 83 0.8 NW 65 82 35 44 - - 17.4
26/05:30am -1.6 -14.1 -4.8 79 1.1 NW 52 74 28 40 - - 17.4
26/05:18am -1.7 -15.1 -4.9 79 1.1 NW 57 76 31 41 - - 17.4
26/05:00am -1.4 -14.7 -5.2 75 1.3 NW 56 70 30 38 - - 17.4
26/04:30am -1.8 -15.9 -3.7 87 0.6 NW 61 80 33 43 - - 17.4
26/04:23am -1.7 -15.7 -3.1 90 0.4 NW 61 80 33 43 - - 17.4
26/04:00am -1.8 -16.5 -2.8 93 0.3 NW 65 82 35 44 - - 17.4
26/03:33am -1.3 -15.2 -2.6 91 0.4 NW 61 82 33 44 - - 17.4
26/03:30am -1.4 -15.3 -2.2 94 0.2 NW 61 78 33 42 - - 17.4
26/03:13am -1.4 -14.5 -2.2 94 0.2 NW 57 78 31 42 - - 17.4
26/03:00am -1.2 -14.3 -1.9 95 0.2 NW 57 72 31 39 - - 17.4
26/02:30am -1.0 -14.4 -1.7 95 0.2 NW 59 80 32 43 - - 17.4
26/02:24am -0.7 -14.2 -2.1 90 0.5 NW 59 80 32 43 - - 17.4
26/02:00am -0.3 -13.1 -1.3 93 0.4 NW 56 72 30 39 - - 17.4
26/01:30am -0.1 -13.8 -0.9 94 0.3 NW 61 74 33 40 - - 17.4
26/01:00am 0.0 -13.3 -0.7 95 0.3 NW 59 74 32 40 - - 17.4
26/12:30am 0.2 -12.5 -0.2 97 0.2 NW 56 82 30 44 - - 17.4
26/12:01am 0.2 -10.9 -0.2 97 0.2 NW 48 69 26 37 - - 17.4
26/12:00am 0.2 -11.0 -0.4 96 0.3 NW 48 65 26 35 - - 17.4
 
Date/Time
EDT
Temp
°C
App
Temp
°C
Dew
Point
°C
Rel
Hum
%
Delta-T
°C
Wind Press
QNH
hPa
Press
MSL
hPa
Rain since
9am
mm
Dir  Spd
km/h
Gust
km/h
Spd
kts
Gust
kts
25/11:30pm 0.5 -10.6 -0.2 95 0.3 NW 48 69 26 37 1014.3 1007.4 17.4
25/11:00pm 0.7 -10.4 -0.2 94 0.4 NW 48 70 26 38 1014.3 1007.4 17.4
25/10:30pm 1.1 -9.0 0.5 96 0.3 NW 43 63 23 34 1014.4 1007.5 17.4
25/10:00pm 1.1 -10.3 0.5 96 0.3 NW 50 70 27 38 - - 17.4
25/09:30pm 1.4 -9.3 0.4 93 0.4 NW 46 69 25 37 - - 17.4
25/09:01pm 1.6 -9.8 0.6 93 0.4 NW 50 69 27 37 - - 17.4
25/09:00pm 1.7 -9.7 0.5 92 0.5 NW 50 67 27 36 - - 17.4
25/08:42pm 1.7 -8.5 0.8 94 0.4 NW 44 74 24 40 - - 17.4
25/08:41pm 1.7 -8.5 0.7 93 0.4 NW 44 74 24 40 - - 17.4
25/08:34pm 1.8 -7.4 1.4 97 0.2 NW 39 57 21 31 - - 17.4
25/08:30pm 1.7 -8.3 1.3 97 0.2 NW 43 59 23 32 - - 17.4
25/08:00pm 2.0 -8.1 1.4 96 0.3 NW 44 69 24 37 - - 17.4
25/07:30pm 2.0 -9.2 1.6 97 0.2 NW 50 69 27 37 - - 17.4
25/07:17pm 2.0 -10.0 1.6 97 0.2 NW 54 72 29 39 - - 17.4
25/07:00pm 2.1 -10.4 1.7 97 0.2 NNW 57 74 31 40 - - 17.4
25/06:30pm 2.3 -9.3 1.9 97 0.2 NW 52 72 28 39 - - 17.4
25/06:00pm 2.6 -7.2 2.2 97 0.2 NW 43 70 23 38 - - 17.4
25/05:31pm 2.8 -7.5 2.4 97 0.2 NW 46 65 25 35 - - 17.4
25/05:30pm 2.7 -8.0 2.3 97 0.2 NW 48 65 26 35 - - 17.4
25/05:00pm 2.7 -6.7 2.3 97 0.2 NW 41 63 22 34 - - 17.4
25/04:51pm 3.0 -9.2 2.6 97 0.2 NW 56 83 30 45 - - 17.4
25/04:40pm 3.1 -10.8 2.7 97 0.2 NW 65 87 35 47 - - 17.4
25/04:39pm 3.1 -10.8 2.7 97 0.2 NW 65 87 35 47 - - 17.4
25/04:30pm 3.4 -8.4 3.0 97 0.2 NW 54 85 29 46 - - 17.4
25/04:00pm 3.9 -8.7 3.5 97 0.2 NW 59 95 32 51 - - 17.4
25/03:30pm 4.3 -8.2 4.0 98 0.1 NW 59 93 32 50 - - 17.4
25/03:00pm 4.9 -7.1 4.6 98 0.1 NW 57 91 31 49 - - 17.2
25/02:30pm 5.3 -6.5 5.0 98 0.1 NW 56 85 30 46 - - 17.0
25/02:00pm 5.5 -5.5 5.2 98 0.1 NW 52 80 28 43 - - 16.0
25/01:47pm 5.8 -4.7 5.5 98 0.1 NW 50 76 27 41 - - 15.4
25/01:45pm 5.8 -4.3 5.5 98 0.1 NW 48 67 26 36 - - 15.2
25/01:30pm 6.0 -6.9 5.7 98 0.2 NW 63 91 34 49 - - 14.0
25/01:00pm 6.6 -4.5 6.3 98 0.2 NW 54 76 29 41 - - 12.6
25/12:30pm 7.7 -2.8 7.4 98 0.2 NW 52 85 28 46 - - 12.2
25/12:27pm 7.9 -1.4 7.6 98 0.2 NW 46 82 25 44 - - 12.0
25/12:20pm 8.4 -0.8 8.1 98 0.2 NW 46 74 25 40 - - 11.8
25/12:00pm 8.6 -3.8 8.3 98 0.2 NW 63 87 34 47 - - 9.8
25/11:51am 8.7 -2.5 8.4 98 0.2 NW 57 87 31 47 - - 8.8
25/11:47am 8.5 -3.5 8.2 98 0.2 NW 61 85 33 46 - - 8.4
25/11:30am 8.5 -5.6 8.2 98 0.2 NNW 72 107 39 58 - - 7.4
25/11:00am 8.8 -4.8 8.5 98 0.2 NNW 70 104 38 56 - - 7.4
25/10:30am 8.9 -4.5 8.5 97 0.2 NNW 69 96 37 52 - - 6.6
25/10:25am 9.0 -3.7 8.6 97 0.2 NW 65 96 35 52 - - 6.6
25/10:23am 9.3 -2.6 8.8 97 0.3 NW 61 85 33 46 - - 6.6
25/10:22am 9.3 -2.6 8.8 97 0.3 NW 61 85 33 46 - - 6.4
25/10:12am 9.1 -6.4 8.8 98 0.2 NNW 80 119 43 64 - - 4.6
25/10:05am 8.8 -5.6 8.4 97 0.2 NNW 74 119 40 64 - - 4.4
25/10:00am 8.9 -4.7 8.5 97 0.2 NNW 70 102 38 55 - - 4.0
25/09:30am 9.2 -3.8 8.9 98 0.2 NNW 67 98 36 53 - - 0.8
25/09:23am 9.2 -4.3 8.9 98 0.2 NNW 70 111 38 60 - - 0.6
25/09:22am 9.3 -4.2 9.0 98 0.2 NNW 70 111 38 60 - - 0.6
25/09:07am 9.1 -5.6 8.8 98 0.2 NNW 76 104 41 56 - - 0.2
25/09:06am 9.3 -5.4 9.0 98 0.2 NNW 76 104 41 56 - - 0.2
25/09:00am 9.3 -2.9 9.0 98 0.2 NNW 63 104 34 56 - - 72.4
25/08:30am 8.9 -3.0 8.5 97 0.2 NNW 61 85 33 46 - - 68.0
25/08:24am 9.2 -3.8 8.9 98 0.2 NNW 67 95 36 51 - - 66.6
25/08:23am 9.6 -3.6 9.3 98 0.2 NNW 69 95 37 51 - - 66.2
25/08:18am 9.5 -3.4 9.2 98 0.2 NW 67 95 36 51 - - 65.4
25/08:17am 9.3 -3.6 9.0 98 0.2 NW 67 95 36 51 - - 65.4
25/08:13am 9.7 -2.4 9.4 98 0.2 NW 63 87 34 47 - - 65.2
25/08:10am 9.4 -3.5 9.1 98 0.2 NNW 67 89 36 48 - - 65.0
25/08:00am 9.2 -5.9 8.9 98 0.2 NNW 78 100 42 54 - - 64.6
25/07:43am 8.9 -1.3 8.5 97 0.2 NNW 52 91 28 49 - - 64.2
25/07:30am 9.1 0.1 8.8 98 0.2 NNW 46 74 25 40 - - 61.2
25/07:00am 9.0 -1.9 8.7 98 0.2 NW 56 80 30 43 - - 58.4
25/06:53am 9.6 -2.5 9.3 98 0.2 NW 63 96 34 52 - - 58.2
25/06:51am 9.3 -2.1 9.0 98 0.2 NW 59 96 32 52 - - 57.6
25/06:49am 9.0 -2.5 8.7 98 0.2 NNW 59 96 32 52 - - 57.2
25/06:48am 9.1 -2.0 8.8 98 0.2 NNW 57 96 31 52 - - 57.2
25/06:46am 9.3 -0.8 9.0 98 0.2 NNW 52 80 28 43 - - 57.2
25/06:45am 9.5 -0.9 9.2 98 0.2 NNW 54 82 29 44 - - 57.2
25/06:38am 9.5 -0.5 9.2 98 0.2 NNW 52 82 28 44 - - 55.6
25/06:36am 9.4 -0.3 9.1 98 0.2 NNW 50 82 27 44 - - 55.4
25/06:34am 9.3 0.3 9.0 98 0.2 NNW 46 82 25 44 - - 55.4
25/06:30am 9.3 -0.4 9.0 98 0.2 NNW 50 70 27 38 - - 54.8
25/06:28am 9.3 -1.2 9.0 98 0.2 NNW 54 74 29 40 - - 54.6
25/06:00am 9.1 -3.1 8.8 98 0.2 NW 63 85 34 46 - - 53.2
25/05:59am 9.3 -2.9 9.0 98 0.2 NW 63 85 34 46 - - 53.2
25/05:56am 9.2 -3.0 8.9 98 0.2 NW 63 85 34 46 - - 53.2
25/05:45am 9.3 -1.2 8.8 97 0.3 NW 54 96 29 52 - - 52.4
25/05:30am 9.7 0.5 9.4 98 0.2 NW 48 74 26 40 - - 50.6
25/05:00am 9.8 0.9 9.3 97 0.3 NW 46 82 25 44 - - 48.6
25/04:36am 10.2 1.8 9.7 97 0.3 NW 44 69 24 37 - - 43.6
25/04:33am 10.3 2.5 9.8 97 0.3 NW 41 69 22 37 - - 43.0
25/04:30am 10.3 3.7 10.0 98 0.2 NW 35 61 19 33 - - 42.2
25/04:01am 10.1 3.4 9.8 98 0.2 NW 35 56 19 30 - - 35.6
25/04:00am 10.1 3.4 9.8 98 0.2 NW 35 48 19 26 - - 35.4
25/03:30am 10.0 0.4 9.5 97 0.3 NW 50 70 27 38 - - 31.0
25/03:00am 9.8 -1.9 9.5 98 0.2 NNW 61 93 33 50 - - 27.8
25/02:30am 9.9 -3.3 9.6 98 0.2 NNW 69 91 37 49 - - 26.6
25/02:12am 9.9 -2.1 9.6 98 0.2 NW 63 82 34 44 - - 26.0
25/02:00am 9.9 -2.1 9.6 98 0.2 NW 63 78 34 42 - - 24.8
25/01:30am 9.8 -3.6 9.5 98 0.2 NW 70 100 38 54 - - 23.4
25/01:01am 9.5 -3.8 9.2 98 0.2 NW 69 87 37 47 - - 21.4
25/01:00am 9.6 -3.8 9.3 98 0.2 NW 70 87 38 47 - - 21.2
25/12:30am 9.7 -4.1 9.4 98 0.2 NW 72 91 39 49 - - 18.8
25/12:00am 9.7 -4.8 9.4 98 0.2 NW 76 102 41 55 - - 16.6
 
Date/Time
EDT
Temp
°C
App
Temp
°C
Dew
Point
°C
Rel
Hum
%
Delta-T
°C
Wind Press
QNH
hPa
Press
MSL
hPa
Rain since
9am
mm
Dir  Spd
km/h
Gust
km/h
Spd
kts
Gust
kts
24/11:30pm 9.7 -4.1 9.4 98 0.2 NW 72 95 39 51 - - 14.0
24/11:00pm 9.7 -4.8 9.4 98 0.2 NW 76 96 41 52 - - 12.4
24/10:30pm 9.9 -5.0 9.6 98 0.2 NW 78 98 42 53 - - 10.6
24/10:00pm 10.1 -4.7 9.8 98 0.2 NW 78 102 42 55 - - 10.2
24/09:30pm 10.1 -3.0 9.8 98 0.2 NW 69 91 37 49 - - 9.8
24/09:00pm 10.0 -4.8 9.7 98 0.2 NW 78 102 42 55 - - 9.6
24/08:37pm 9.8 -3.0 9.5 98 0.2 NW 67 107 36 58 - - 9.6
24/08:30pm 10.1 -2.3 9.8 98 0.2 NW 65 89 35 48 - - 9.4
24/08:00pm 10.0 -2.4 9.7 98 0.2 NW 65 83 35 45 - - 8.2
24/07:48pm 10.0 -3.7 9.7 98 0.2 NW 72 98 39 53 - - 8.2
24/07:30pm 10.2 -0.6 9.9 98 0.2 NW 57 95 31 51 - - 7.6
24/07:26pm 10.1 -1.1 9.8 98 0.2 NW 59 95 32 51 1014.5 1007.6 7.6
24/07:00pm 10.3 0.1 10.0 98 0.2 NW 54 76 29 41 1014.3 1007.4 6.0
24/06:31pm 10.3 -1.2 10.0 98 0.2 NNW 61 85 33 46 - - 5.6
24/06:30pm 10.3 -1.2 10.0 98 0.2 NNW 61 85 33 46 - - 5.6
24/06:28pm 10.4 -0.2 10.1 98 0.2 NNW 56 85 30 46 - - 5.6
24/06:22pm 10.7 0.6 10.4 98 0.2 NW 54 80 29 43 1014.4 1007.5 5.4
24/06:20pm 10.8 0.7 10.5 98 0.2 NW 54 80 29 43 1014.4 1007.5 4.8
24/06:00pm 10.8 0.4 10.5 98 0.2 NW 56 85 30 46 - - 3.0
24/05:57pm 10.8 1.8 10.3 97 0.3 NW 48 85 26 46 1014.9 1008.0 3.0
24/05:55pm 10.9 2.8 10.6 98 0.2 NW 44 85 24 46 1014.9 1008.0 3.0
24/05:30pm 10.7 1.7 10.2 97 0.3 NW 48 67 26 36 1015.4 1008.5 2.6
24/05:00pm 10.3 2.9 10.0 98 0.2 NW 39 59 21 32 1016.0 1009.1 2.6
24/04:30pm 10.5 1.1 10.2 98 0.2 NW 50 69 27 37 1015.4 1008.5 2.6
24/04:05pm 10.7 1.7 10.2 97 0.3 NW 48 67 26 36 1015.7 1008.9 2.6
24/04:00pm 10.7 1.3 10.1 96 0.3 NW 50 67 27 36 1015.6 1008.7 2.6
24/03:44pm 11.9 1.5 9.3 84 1.5 NW 54 72 29 39 1015.1 1008.2 2.6
24/03:30pm 11.5 0.7 9.2 86 1.3 NW 56 70 30 38 1015.5 1008.6 2.6
24/03:00pm 12.1 2.1 7.8 75 2.3 NW 50 63 27 34 1015.9 1009.0 2.6
24/02:30pm 13.6 5.5 8.7 72 2.7 NW 41 54 22 29 1017.1 1010.2 2.6
24/02:00pm 13.4 6.6 9.1 75 2.4 NW 35 50 19 27 1017.2 1010.4 2.6
24/01:30pm 12.3 4.5 9.9 85 1.4 NW 41 52 22 28 1017.2 1010.4 2.6
24/01:00pm 10.7 2.1 10.2 97 0.3 NW 46 59 25 32 1017.1 1010.2 2.6
24/12:30pm 10.4 1.7 10.1 98 0.2 NW 46 57 25 31 1017.6 1010.8 2.6
24/12:00pm 9.4 -0.3 9.1 98 0.2 NW 50 63 27 34 1017.4 1010.6 2.6
24/11:30am 9.0 -1.2 8.7 98 0.2 NW 52 65 28 35 1017.6 1010.8 2.4
24/11:00am 8.9 -1.7 8.6 98 0.2 NW 54 65 29 35 1017.9 1011.1 2.4
24/10:30am 9.1 0.1 8.8 98 0.2 NW 46 59 25 32 1018.5 1011.8 1.8
24/10:00am 8.7 -1.9 8.4 98 0.2 NW 54 67 29 36 1017.7 1010.9 0.4
24/09:33am 8.9 -2.6 8.6 98 0.2 NW 59 80 32 43 1017.1 1010.2 0.0
24/09:30am 8.8 -2.7 8.5 98 0.2 NW 59 74 32 40 1017.4 1010.6 0.0
24/09:07am 8.4 -2.7 8.1 98 0.2 NW 56 74 30 40 1017.3 1010.5 0.0
24/09:00am 8.0 -3.2 7.7 98 0.2 NW 56 70 30 38 1017.6 1010.8 4.6
24/08:30am 7.6 -3.7 7.3 98 0.2 NW 56 74 30 40 1017.4 1010.6 4.2
24/08:01am 8.1 -3.1 7.7 97 0.2 NW 56 74 30 40 1017.1 1010.2 4.0
24/08:00am 8.3 -2.4 7.9 97 0.2 NW 54 69 29 37 1017.3 1010.5 4.0
24/07:30am 8.3 -2.4 7.9 97 0.2 NW 54 69 29 37 1017.2 1010.4 3.4
24/07:00am 7.8 -0.6 7.2 96 0.3 NW 41 57 22 31 1017.7 1010.9 3.2
24/06:56am 7.8 -0.2 7.4 97 0.2 NW 39 57 21 31 1017.7 1010.9 3.0
24/06:30am 8.4 0.9 8.0 97 0.2 NW 37 48 20 26 1018.5 1011.8 2.6
24/06:00am 9.0 1.3 8.6 97 0.2 WNW 39 54 21 29 1018.5 1011.8 1.6
24/05:30am 9.6 0.6 8.8 95 0.4 WNW 46 57 25 31 1018.4 1011.6 1.2
24/05:00am 10.3 2.8 9.4 94 0.5 WNW 39 52 21 28 1018.7 1011.9 1.2
24/04:30am 10.7 3.1 9.0 89 0.9 NW 39 50 21 27 1018.2 1011.4 1.2
24/04:00am 10.8 4.1 7.5 80 1.8 NW 32 48 17 26 1018.2 1011.4 1.2
24/03:54am 10.9 4.2 7.2 78 2.0 NW 32 50 17 27 1018.3 1011.5 1.2
24/03:30am 11.1 3.6 7.8 80 1.8 NW 37 48 20 26 1018.4 1011.6 1.2
24/03:00am 11.3 2.6 8.5 83 1.5 NW 44 54 24 29 1018.2 1011.4 1.2
24/02:30am 11.3 3.5 9.6 89 1.0 NW 41 54 22 29 1018.3 1011.5 1.2
24/02:00am 11.6 3.4 9.7 88 1.1 NW 43 52 23 28 1018.5 1011.8 1.2
24/01:30am 11.2 4.4 9.3 88 1.1 NW 35 46 19 25 1019.1 1012.4 1.2
24/01:00am 11.0 4.8 9.3 89 0.9 NW 32 41 17 22 1019.1 1012.4 1.2
24/12:30am 11.3 4.8 8.9 85 1.3 WNW 33 41 18 22 1019.4 1012.6 1.2
24/12:00am 11.4 5.1 9.0 85 1.3 WNW 32 43 17 23 1019.5 1012.8 1.2
 
Date/Time
EDT
Temp
°C
App
Temp
°C
Dew
Point
°C
Rel
Hum
%
Delta-T
°C
Wind Press
QNH
hPa
Press
MSL
hPa
Rain since
9am
mm
Dir  Spd
km/h
Gust
km/h
Spd
kts
Gust
kts
23/11:30pm 11.6 6.0 8.8 83 1.5 WNW 28 43 15 23 1020.0 1013.3 1.2
23/11:20pm 11.8 5.8 8.8 82 1.7 WNW 30 50 16 27 1020.0 1013.3 1.2
23/11:00pm 11.4 4.9 8.8 84 1.4 WNW 33 46 18 25 1020.0 1013.3 1.2
23/10:30pm 11.4 4.4 8.4 82 1.6 WNW 35 48 19 26 1019.5 1012.8 1.2
23/10:14pm 11.1 4.5 8.7 85 1.3 NW 33 52 18 28 1019.5 1012.8 1.2
23/10:00pm 10.5 4.0 8.8 89 0.9 NW 33 41 18 22 1019.5 1012.8 1.2
23/09:30pm 9.9 2.7 9.3 96 0.3 NW 37 46 20 25 1019.4 1012.6 1.2
23/09:00pm 10.7 3.4 8.6 87 1.2 NW 37 48 20 26 1018.5 1011.8 1.2
23/08:30pm 10.6 2.9 8.7 88 1.0 NW 39 48 21 26 1018.4 1011.6 1.2
23/08:00pm 10.7 2.1 9.0 89 0.9 NNW 44 56 24 30 1017.6 1010.8 1.2
23/07:30pm 10.0 1.2 9.5 97 0.3 NNW 46 54 25 29 1017.4 1010.6 1.2
23/07:00pm 10.3 0.8 9.7 96 0.3 NW 50 59 27 32 1017.1 1010.2 1.2
23/06:30pm 11.1 0.7 9.2 88 1.1 NW 54 63 29 34 1016.8 1010.0 1.2
23/06:00pm 11.6 0.7 8.8 83 1.5 NW 56 67 30 36 1016.5 1009.6 1.2

Latest Capital City Observations: Canberra | Sydney | Melbourne | Brisbane | Adelaide | Perth | Hobart | Darwin

Other formats

Comma delimited format used in spreadsheet applications
http://www.bom.gov.au/fwo/IDN60903/IDN60903.95909.axf

JavaScript Object Notation format (JSON) in row-major order
http://www.bom.gov.au/fwo/IDN60903/IDN60903.95909.json

Data quality

Most of these data are generated automatically and are frequently updated. Quality checks on data are not normally performed. It is possible for incorrect values to appear. Refer to information at About Latest Weather Observations and please check the disclaimer before using these data.